sensor_id;sensor_type;location;lat;lon;timestamp;P1;durP1;ratioP1;P2;durP2;ratioP2
4377;SDS011;2203;53.686;9.994;2023-08-06T00:01:36;3.50;;;2.47;;
4377;SDS011;2203;53.686;9.994;2023-08-06T00:04:01;4.10;;;3.27;;
4377;SDS011;2203;53.686;9.994;2023-08-06T00:06:27;6.20;;;3.10;;
4377;SDS011;2203;53.686;9.994;2023-08-06T00:08:52;3.30;;;2.87;;
4377;SDS011;2203;53.686;9.994;2023-08-06T00:11:18;6.70;;;3.07;;
4377;SDS011;2203;53.686;9.994;2023-08-06T00:13:43;7.57;;;3.07;;
4377;SDS011;2203;53.686;9.994;2023-08-06T00:16:12;6.23;;;3.37;;
4377;SDS011;2203;53.686;9.994;2023-08-06T00:18:38;4.37;;;3.07;;
4377;SDS011;2203;53.686;9.994;2023-08-06T00:21:04;4.33;;;2.97;;
4377;SDS011;2203;53.686;9.994;2023-08-06T00:23:29;4.00;;;3.17;;
4377;SDS011;2203;53.686;9.994;2023-08-06T00:25:55;9.70;;;2.80;;
4377;SDS011;2203;53.686;9.994;2023-08-06T00:28:20;5.70;;;3.00;;
4377;SDS011;2203;53.686;9.994;2023-08-06T00:30:45;5.60;;;3.30;;
4377;SDS011;2203;53.686;9.994;2023-08-06T00:33:11;5.27;;;3.60;;
4377;SDS011;2203;53.686;9.994;2023-08-06T00:35:36;10.80;;;3.30;;
4377;SDS011;2203;53.686;9.994;2023-08-06T00:38:01;8.13;;;3.10;;
4377;SDS011;2203;53.686;9.994;2023-08-06T00:40:27;3.90;;;3.03;;
4377;SDS011;2203;53.686;9.994;2023-08-06T00:42:55;4.17;;;2.77;;
4377;SDS011;2203;53.686;9.994;2023-08-06T00:45:20;6.40;;;3.23;;
4377;SDS011;2203;53.686;9.994;2023-08-06T00:47:47;5.77;;;2.90;;
4377;SDS011;2203;53.686;9.994;2023-08-06T00:50:12;4.90;;;3.80;;
4377;SDS011;2203;53.686;9.994;2023-08-06T00:52:38;5.60;;;3.63;;
4377;SDS011;2203;53.686;9.994;2023-08-06T00:55:04;6.03;;;3.87;;
4377;SDS011;2203;53.686;9.994;2023-08-06T00:57:29;4.97;;;3.70;;
4377;SDS011;2203;53.686;9.994;2023-08-06T00:59:55;4.60;;;3.10;;
4377;SDS011;2203;53.686;9.994;2023-08-06T01:02:20;5.00;;;3.57;;
4377;SDS011;2203;53.686;9.994;2023-08-06T01:04:46;4.30;;;3.50;;
4377;SDS011;2203;53.686;9.994;2023-08-06T01:07:24;5.00;;;3.70;;
4377;SDS011;2203;53.686;9.994;2023-08-06T01:13:11;6.60;;;3.30;;
4377;SDS011;2203;53.686;9.994;2023-08-06T01:15:46;7.33;;;4.37;;
4377;SDS011;2203;53.686;9.994;2023-08-06T01:18:15;7.00;;;4.40;;
4377;SDS011;2203;53.686;9.994;2023-08-06T01:20:40;5.63;;;4.10;;
4377;SDS011;2203;53.686;9.994;2023-08-06T01:23:06;5.50;;;4.20;;
4377;SDS011;2203;53.686;9.994;2023-08-06T01:26:10;11.10;;;4.30;;
4377;SDS011;2203;53.686;9.994;2023-08-06T01:28:35;12.07;;;4.60;;
4377;SDS011;2203;53.686;9.994;2023-08-06T01:31:07;6.50;;;4.20;;
4377;SDS011;2203;53.686;9.994;2023-08-06T01:33:35;7.50;;;4.23;;
4377;SDS011;2203;53.686;9.994;2023-08-06T01:36:01;8.00;;;4.10;;
4377;SDS011;2203;53.686;9.994;2023-08-06T01:38:27;7.47;;;4.23;;
4377;SDS011;2203;53.686;9.994;2023-08-06T01:40:53;6.10;;;4.00;;
4377;SDS011;2203;53.686;9.994;2023-08-06T01:43:18;6.40;;;4.10;;
4377;SDS011;2203;53.686;9.994;2023-08-06T01:45:44;7.03;;;4.30;;
4377;SDS011;2203;53.686;9.994;2023-08-06T01:48:09;5.20;;;3.80;;
4377;SDS011;2203;53.686;9.994;2023-08-06T01:50:35;3.57;;;3.20;;
4377;SDS011;2203;53.686;9.994;2023-08-06T01:53:03;3.90;;;3.50;;
4377;SDS011;2203;53.686;9.994;2023-08-06T01:55:31;7.97;;;3.37;;
4377;SDS011;2203;53.686;9.994;2023-08-06T01:57:57;4.70;;;4.00;;
4377;SDS011;2203;53.686;9.994;2023-08-06T02:00:22;6.57;;;3.60;;
4377;SDS011;2203;53.686;9.994;2023-08-06T02:02:48;4.83;;;3.40;;
4377;SDS011;2203;53.686;9.994;2023-08-06T02:05:13;8.07;;;4.07;;
4377;SDS011;2203;53.686;9.994;2023-08-06T02:07:38;7.27;;;3.50;;
4377;SDS011;2203;53.686;9.994;2023-08-06T02:10:04;4.63;;;3.67;;
4377;SDS011;2203;53.686;9.994;2023-08-06T02:12:30;7.20;;;3.80;;
4377;SDS011;2203;53.686;9.994;2023-08-06T02:14:55;7.33;;;3.50;;
4377;SDS011;2203;53.686;9.994;2023-08-06T02:17:20;4.03;;;3.13;;
4377;SDS011;2203;53.686;9.994;2023-08-06T02:19:46;5.23;;;3.20;;
4377;SDS011;2203;53.686;9.994;2023-08-06T02:22:11;4.83;;;3.37;;
4377;SDS011;2203;53.686;9.994;2023-08-06T02:24:37;5.80;;;4.23;;
4377;SDS011;2203;53.686;9.994;2023-08-06T02:27:02;3.87;;;3.47;;
4377;SDS011;2203;53.686;9.994;2023-08-06T02:29:30;7.97;;;3.53;;
4377;SDS011;2203;53.686;9.994;2023-08-06T02:31:56;7.83;;;4.67;;
4377;SDS011;2203;53.686;9.994;2023-08-06T02:34:21;6.20;;;3.83;;
4377;SDS011;2203;53.686;9.994;2023-08-06T02:36:49;6.83;;;3.73;;
4377;SDS011;2203;53.686;9.994;2023-08-06T02:39:15;5.80;;;4.43;;
4377;SDS011;2203;53.686;9.994;2023-08-06T02:41:40;4.73;;;3.77;;
4377;SDS011;2203;53.686;9.994;2023-08-06T02:44:06;4.57;;;3.47;;
4377;SDS011;2203;53.686;9.994;2023-08-06T02:46:31;4.00;;;3.50;;
4377;SDS011;2203;53.686;9.994;2023-08-06T02:48:56;7.23;;;3.40;;
4377;SDS011;2203;53.686;9.994;2023-08-06T02:51:22;5.20;;;3.57;;
4377;SDS011;2203;53.686;9.994;2023-08-06T02:53:48;4.33;;;3.30;;
4377;SDS011;2203;53.686;9.994;2023-08-06T02:56:14;6.17;;;3.40;;
4377;SDS011;2203;53.686;9.994;2023-08-06T02:58:42;7.83;;;4.10;;
4377;SDS011;2203;53.686;9.994;2023-08-06T03:01:07;4.30;;;3.47;;
4377;SDS011;2203;53.686;9.994;2023-08-06T03:03:39;5.27;;;3.40;;
4377;SDS011;2203;53.686;9.994;2023-08-06T03:06:04;3.60;;;3.30;;
4377;SDS011;2203;53.686;9.994;2023-08-06T03:08:29;5.13;;;3.40;;
4377;SDS011;2203;53.686;9.994;2023-08-06T03:10:55;5.60;;;3.30;;
4377;SDS011;2203;53.686;9.994;2023-08-06T03:13:20;6.50;;;3.93;;
4377;SDS011;2203;53.686;9.994;2023-08-06T03:15:55;5.67;;;3.80;;
4377;SDS011;2203;53.686;9.994;2023-08-06T03:18:21;4.30;;;3.90;;
4377;SDS011;2203;53.686;9.994;2023-08-06T03:20:51;7.33;;;4.40;;
4377;SDS011;2203;53.686;9.994;2023-08-06T03:23:16;8.20;;;4.07;;
4377;SDS011;2203;53.686;9.994;2023-08-06T03:25:42;8.80;;;4.37;;
4377;SDS011;2203;53.686;9.994;2023-08-06T03:28:08;6.80;;;4.20;;
4377;SDS011;2203;53.686;9.994;2023-08-06T03:33:58;6.97;;;4.33;;
4377;SDS011;2203;53.686;9.994;2023-08-06T03:36:23;8.30;;;4.10;;
4377;SDS011;2203;53.686;9.994;2023-08-06T03:38:48;5.70;;;4.50;;
4377;SDS011;2203;53.686;9.994;2023-08-06T03:41:16;5.70;;;3.27;;
4377;SDS011;2203;53.686;9.994;2023-08-06T03:43:44;6.20;;;3.40;;
4377;SDS011;2203;53.686;9.994;2023-08-06T03:46:09;6.37;;;3.53;;
4377;SDS011;2203;53.686;9.994;2023-08-06T03:48:35;10.40;;;3.80;;
4377;SDS011;2203;53.686;9.994;2023-08-06T03:51:00;5.93;;;3.83;;
4377;SDS011;2203;53.686;9.994;2023-08-06T03:53:44;6.20;;;4.07;;
4377;SDS011;2203;53.686;9.994;2023-08-06T04:03:20;11.73;;;3.90;;
4377;SDS011;2203;53.686;9.994;2023-08-06T04:05:46;5.43;;;3.60;;
4377;SDS011;2203;53.686;9.994;2023-08-06T04:08:11;11.63;;;3.90;;
4377;SDS011;2203;53.686;9.994;2023-08-06T04:10:36;8.70;;;3.70;;
4377;SDS011;2203;53.686;9.994;2023-08-06T04:13:02;8.43;;;3.43;;
4377;SDS011;2203;53.686;9.994;2023-08-06T04:15:27;8.67;;;3.30;;
4377;SDS011;2203;53.686;9.994;2023-08-06T04:17:53;4.17;;;3.30;;
4377;SDS011;2203;53.686;9.994;2023-08-06T04:20:18;10.97;;;4.07;;
4377;SDS011;2203;53.686;9.994;2023-08-06T04:22:43;5.80;;;3.80;;
4377;SDS011;2203;53.686;9.994;2023-08-06T04:25:09;6.17;;;3.03;;
4377;SDS011;2203;53.686;9.994;2023-08-06T04:27:34;5.33;;;3.67;;
4377;SDS011;2203;53.686;9.994;2023-08-06T04:30:02;8.30;;;3.80;;
4377;SDS011;2203;53.686;9.994;2023-08-06T04:32:27;11.10;;;3.90;;
4377;SDS011;2203;53.686;9.994;2023-08-06T04:34:55;11.60;;;3.50;;
4377;SDS011;2203;53.686;9.994;2023-08-06T04:37:20;6.47;;;3.53;;
4377;SDS011;2203;53.686;9.994;2023-08-06T04:39:46;10.90;;;3.30;;
4377;SDS011;2203;53.686;9.994;2023-08-06T04:42:11;6.90;;;3.80;;
4377;SDS011;2203;53.686;9.994;2023-08-06T04:44:37;10.37;;;4.10;;
4377;SDS011;2203;53.686;9.994;2023-08-06T04:47:02;5.40;;;3.33;;
4377;SDS011;2203;53.686;9.994;2023-08-06T04:49:28;11.20;;;4.70;;
4377;SDS011;2203;53.686;9.994;2023-08-06T04:51:53;7.40;;;3.90;;
4377;SDS011;2203;53.686;9.994;2023-08-06T04:54:18;12.90;;;3.70;;
4377;SDS011;2203;53.686;9.994;2023-08-06T04:56:44;8.47;;;4.20;;
4377;SDS011;2203;53.686;9.994;2023-08-06T04:59:09;7.20;;;3.80;;
4377;SDS011;2203;53.686;9.994;2023-08-06T05:01:35;10.30;;;3.50;;
4377;SDS011;2203;53.686;9.994;2023-08-06T05:04:00;8.83;;;4.40;;
4377;SDS011;2203;53.686;9.994;2023-08-06T05:06:25;5.73;;;4.00;;
4377;SDS011;2203;53.686;9.994;2023-08-06T05:08:51;6.10;;;4.10;;
4377;SDS011;2203;53.686;9.994;2023-08-06T05:11:16;10.70;;;4.17;;
4377;SDS011;2203;53.686;9.994;2023-08-06T05:13:42;10.50;;;4.60;;
4377;SDS011;2203;53.686;9.994;2023-08-06T05:16:07;4.60;;;4.00;;
4377;SDS011;2203;53.686;9.994;2023-08-06T05:18:32;12.40;;;4.77;;
4377;SDS011;2203;53.686;9.994;2023-08-06T05:20:59;6.70;;;4.07;;
4377;SDS011;2203;53.686;9.994;2023-08-06T05:23:24;10.00;;;4.90;;
4377;SDS011;2203;53.686;9.994;2023-08-06T05:25:50;5.97;;;4.93;;
4377;SDS011;2203;53.686;9.994;2023-08-06T05:28:15;9.90;;;4.47;;
4377;SDS011;2203;53.686;9.994;2023-08-06T05:30:41;15.80;;;4.67;;
4377;SDS011;2203;53.686;9.994;2023-08-06T05:33:06;13.87;;;5.03;;
4377;SDS011;2203;53.686;9.994;2023-08-06T05:35:32;12.67;;;5.13;;
4377;SDS011;2203;53.686;9.994;2023-08-06T05:37:57;13.47;;;5.03;;
4377;SDS011;2203;53.686;9.994;2023-08-06T05:40:23;13.53;;;5.23;;
4377;SDS011;2203;53.686;9.994;2023-08-06T05:42:50;11.83;;;5.30;;
4377;SDS011;2203;53.686;9.994;2023-08-06T05:45:16;10.00;;;5.00;;
4377;SDS011;2203;53.686;9.994;2023-08-06T05:47:42;10.77;;;5.53;;
4377;SDS011;2203;53.686;9.994;2023-08-06T05:50:07;10.13;;;4.97;;
4377;SDS011;2203;53.686;9.994;2023-08-06T05:52:34;9.60;;;4.90;;
4377;SDS011;2203;53.686;9.994;2023-08-06T05:54:59;14.40;;;6.73;;
4377;SDS011;2203;53.686;9.994;2023-08-06T05:57:24;9.57;;;5.07;;
4377;SDS011;2203;53.686;9.994;2023-08-06T05:59:50;8.33;;;4.63;;
4377;SDS011;2203;53.686;9.994;2023-08-06T06:02:15;11.03;;;4.83;;
4377;SDS011;2203;53.686;9.994;2023-08-06T06:04:41;9.93;;;4.67;;
4377;SDS011;2203;53.686;9.994;2023-08-06T06:07:06;8.93;;;5.43;;
4377;SDS011;2203;53.686;9.994;2023-08-06T06:09:32;10.10;;;5.00;;
4377;SDS011;2203;53.686;9.994;2023-08-06T06:11:57;15.17;;;5.10;;
4377;SDS011;2203;53.686;9.994;2023-08-06T06:14:22;8.40;;;5.17;;
4377;SDS011;2203;53.686;9.994;2023-08-06T06:16:48;17.90;;;5.40;;
4377;SDS011;2203;53.686;9.994;2023-08-06T06:19:13;6.60;;;4.67;;
4377;SDS011;2203;53.686;9.994;2023-08-06T06:21:39;11.40;;;5.00;;
4377;SDS011;2203;53.686;9.994;2023-08-06T06:24:05;10.20;;;5.50;;
4377;SDS011;2203;53.686;9.994;2023-08-06T06:26:31;9.30;;;5.00;;
4377;SDS011;2203;53.686;9.994;2023-08-06T06:28:57;9.70;;;5.20;;
4377;SDS011;2203;53.686;9.994;2023-08-06T06:31:22;17.47;;;5.53;;
4377;SDS011;2203;53.686;9.994;2023-08-06T06:33:48;9.23;;;5.57;;
4377;SDS011;2203;53.686;9.994;2023-08-06T06:36:13;9.43;;;5.27;;
4377;SDS011;2203;53.686;9.994;2023-08-06T06:38:38;12.07;;;5.07;;
4377;SDS011;2203;53.686;9.994;2023-08-06T06:41:04;10.53;;;5.23;;
4377;SDS011;2203;53.686;9.994;2023-08-06T06:43:29;12.00;;;5.43;;
4377;SDS011;2203;53.686;9.994;2023-08-06T06:45:58;6.60;;;5.07;;
4377;SDS011;2203;53.686;9.994;2023-08-06T06:48:28;11.07;;;5.73;;
4377;SDS011;2203;53.686;9.994;2023-08-06T06:50:54;11.60;;;5.27;;
4377;SDS011;2203;53.686;9.994;2023-08-06T06:53:19;18.13;;;5.50;;
4377;SDS011;2203;53.686;9.994;2023-08-06T06:55:45;9.03;;;4.77;;
4377;SDS011;2203;53.686;9.994;2023-08-06T06:58:13;11.27;;;5.20;;
4377;SDS011;2203;53.686;9.994;2023-08-06T07:00:39;10.73;;;5.50;;
4377;SDS011;2203;53.686;9.994;2023-08-06T07:03:05;8.73;;;5.50;;
4377;SDS011;2203;53.686;9.994;2023-08-06T07:05:30;13.53;;;5.73;;
4377;SDS011;2203;53.686;9.994;2023-08-06T07:07:56;11.57;;;5.67;;
4377;SDS011;2203;53.686;9.994;2023-08-06T07:10:22;12.43;;;7.27;;
4377;SDS011;2203;53.686;9.994;2023-08-06T07:12:48;15.57;;;6.00;;
4377;SDS011;2203;53.686;9.994;2023-08-06T07:15:13;9.70;;;4.83;;
4377;SDS011;2203;53.686;9.994;2023-08-06T07:17:38;12.03;;;5.70;;
4377;SDS011;2203;53.686;9.994;2023-08-06T07:20:04;12.03;;;5.03;;
4377;SDS011;2203;53.686;9.994;2023-08-06T07:22:31;12.97;;;5.60;;
4377;SDS011;2203;53.686;9.994;2023-08-06T07:24:56;10.73;;;5.30;;
4377;SDS011;2203;53.686;9.994;2023-08-06T07:27:22;8.43;;;5.20;;
4377;SDS011;2203;53.686;9.994;2023-08-06T07:29:47;11.33;;;4.97;;
4377;SDS011;2203;53.686;9.994;2023-08-06T07:32:13;10.23;;;5.70;;
4377;SDS011;2203;53.686;9.994;2023-08-06T07:34:38;10.13;;;5.80;;
4377;SDS011;2203;53.686;9.994;2023-08-06T07:37:04;10.47;;;5.50;;
4377;SDS011;2203;53.686;9.994;2023-08-06T07:39:30;7.53;;;4.80;;
4377;SDS011;2203;53.686;9.994;2023-08-06T07:41:56;11.13;;;5.67;;
4377;SDS011;2203;53.686;9.994;2023-08-06T07:44:21;14.30;;;5.40;;
4377;SDS011;2203;53.686;9.994;2023-08-06T07:46:47;12.63;;;5.13;;
4377;SDS011;2203;53.686;9.994;2023-08-06T07:49:27;8.87;;;5.70;;
4377;SDS011;2203;53.686;9.994;2023-08-06T07:52:11;7.37;;;4.57;;
4377;SDS011;2203;53.686;9.994;2023-08-06T07:54:39;9.63;;;6.30;;
4377;SDS011;2203;53.686;9.994;2023-08-06T07:57:04;13.53;;;5.03;;
4377;SDS011;2203;53.686;9.994;2023-08-06T07:59:30;8.50;;;5.47;;
4377;SDS011;2203;53.686;9.994;2023-08-06T08:01:55;12.53;;;5.73;;
4377;SDS011;2203;53.686;9.994;2023-08-06T08:04:21;11.00;;;5.93;;
4377;SDS011;2203;53.686;9.994;2023-08-06T08:06:46;11.80;;;5.80;;
4377;SDS011;2203;53.686;9.994;2023-08-06T08:09:12;9.00;;;5.00;;
4377;SDS011;2203;53.686;9.994;2023-08-06T08:11:38;14.30;;;5.47;;
4377;SDS011;2203;53.686;9.994;2023-08-06T08:14:04;13.10;;;5.70;;
4377;SDS011;2203;53.686;9.994;2023-08-06T08:16:30;14.83;;;5.83;;
4377;SDS011;2203;53.686;9.994;2023-08-06T08:18:55;9.67;;;5.80;;
4377;SDS011;2203;53.686;9.994;2023-08-06T08:21:20;11.00;;;5.67;;
4377;SDS011;2203;53.686;9.994;2023-08-06T08:23:46;13.60;;;5.80;;
4377;SDS011;2203;53.686;9.994;2023-08-06T08:26:11;15.43;;;6.00;;
4377;SDS011;2203;53.686;9.994;2023-08-06T08:28:37;18.50;;;6.63;;
4377;SDS011;2203;53.686;9.994;2023-08-06T08:31:02;9.33;;;5.73;;
4377;SDS011;2203;53.686;9.994;2023-08-06T08:33:27;10.67;;;6.30;;
4377;SDS011;2203;53.686;9.994;2023-08-06T08:35:53;8.40;;;2.97;;
4377;SDS011;2203;53.686;9.994;2023-08-06T08:38:18;15.50;;;4.43;;
4377;SDS011;2203;53.686;9.994;2023-08-06T08:40:45;12.17;;;5.00;;
4377;SDS011;2203;53.686;9.994;2023-08-06T08:43:14;10.60;;;5.97;;
4377;SDS011;2203;53.686;9.994;2023-08-06T08:45:40;11.83;;;5.33;;
4377;SDS011;2203;53.686;9.994;2023-08-06T08:48:07;11.90;;;4.97;;
4377;SDS011;2203;53.686;9.994;2023-08-06T08:50:34;8.50;;;5.10;;
4377;SDS011;2203;53.686;9.994;2023-08-06T08:53:00;7.87;;;4.27;;
4377;SDS011;2203;53.686;9.994;2023-08-06T08:55:25;5.70;;;4.30;;
4377;SDS011;2203;53.686;9.994;2023-08-06T08:57:51;16.33;;;7.30;;
4377;SDS011;2203;53.686;9.994;2023-08-06T09:00:16;11.03;;;6.47;;
4377;SDS011;2203;53.686;9.994;2023-08-06T09:02:42;15.10;;;6.80;;
4377;SDS011;2203;53.686;9.994;2023-08-06T09:05:09;13.80;;;5.00;;
4377;SDS011;2203;53.686;9.994;2023-08-06T09:07:35;14.53;;;6.43;;
4377;SDS011;2203;53.686;9.994;2023-08-06T09:10:05;9.60;;;5.50;;
4377;SDS011;2203;53.686;9.994;2023-08-06T09:12:32;12.10;;;5.80;;
4377;SDS011;2203;53.686;9.994;2023-08-06T09:14:57;13.77;;;7.10;;
4377;SDS011;2203;53.686;9.994;2023-08-06T09:17:23;16.93;;;6.47;;
4377;SDS011;2203;53.686;9.994;2023-08-06T09:19:49;10.13;;;6.63;;
4377;SDS011;2203;53.686;9.994;2023-08-06T09:22:14;14.00;;;6.53;;
4377;SDS011;2203;53.686;9.994;2023-08-06T09:24:43;11.43;;;5.70;;
4377;SDS011;2203;53.686;9.994;2023-08-06T09:27:12;15.20;;;6.73;;
4377;SDS011;2203;53.686;9.994;2023-08-06T09:29:45;12.90;;;6.60;;
4377;SDS011;2203;53.686;9.994;2023-08-06T09:32:14;11.70;;;7.33;;
4377;SDS011;2203;53.686;9.994;2023-08-06T09:34:42;8.60;;;5.90;;
4377;SDS011;2203;53.686;9.994;2023-08-06T09:37:08;7.60;;;5.77;;
4377;SDS011;2203;53.686;9.994;2023-08-06T09:39:34;13.33;;;6.47;;
4377;SDS011;2203;53.686;9.994;2023-08-06T09:42:01;14.43;;;5.50;;
4377;SDS011;2203;53.686;9.994;2023-08-06T09:44:27;7.23;;;4.97;;
4377;SDS011;2203;53.686;9.994;2023-08-06T09:46:57;8.70;;;5.93;;
4377;SDS011;2203;53.686;9.994;2023-08-06T09:51:58;12.40;;;5.33;;
4377;SDS011;2203;53.686;9.994;2023-08-06T09:54:25;17.57;;;8.40;;
4377;SDS011;2203;53.686;9.994;2023-08-06T09:56:52;10.23;;;5.70;;
4377;SDS011;2203;53.686;9.994;2023-08-06T09:59:18;11.47;;;6.17;;
4377;SDS011;2203;53.686;9.994;2023-08-06T10:01:44;9.10;;;5.73;;
4377;SDS011;2203;53.686;9.994;2023-08-06T10:04:10;6.10;;;5.50;;
4377;SDS011;2203;53.686;9.994;2023-08-06T10:06:38;7.83;;;5.50;;
4377;SDS011;2203;53.686;9.994;2023-08-06T10:09:04;11.00;;;5.80;;
4377;SDS011;2203;53.686;9.994;2023-08-06T10:11:30;11.43;;;6.40;;
4377;SDS011;2203;53.686;9.994;2023-08-06T10:14:30;12.63;;;6.73;;
4377;SDS011;2203;53.686;9.994;2023-08-06T10:16:56;12.50;;;7.13;;
4377;SDS011;2203;53.686;9.994;2023-08-06T10:19:22;17.10;;;6.07;;
4377;SDS011;2203;53.686;9.994;2023-08-06T10:24:53;13.80;;;7.30;;
4377;SDS011;2203;53.686;9.994;2023-08-06T10:27:23;9.20;;;6.40;;
4377;SDS011;2203;53.686;9.994;2023-08-06T10:38:02;10.07;;;7.10;;
4377;SDS011;2203;53.686;9.994;2023-08-06T10:40:29;20.30;;;8.40;;
4377;SDS011;2203;53.686;9.994;2023-08-06T10:42:58;14.00;;;8.00;;
4377;SDS011;2203;53.686;9.994;2023-08-06T10:45:24;14.30;;;8.10;;
4377;SDS011;2203;53.686;9.994;2023-08-06T10:47:53;13.17;;;8.20;;
4377;SDS011;2203;53.686;9.994;2023-08-06T10:50:19;14.13;;;8.30;;
4377;SDS011;2203;53.686;9.994;2023-08-06T10:52:45;14.77;;;9.30;;
4377;SDS011;2203;53.686;9.994;2023-08-06T10:55:11;16.50;;;8.40;;
4377;SDS011;2203;53.686;9.994;2023-08-06T10:57:37;18.60;;;8.00;;
4377;SDS011;2203;53.686;9.994;2023-08-06T11:00:06;13.33;;;8.63;;
4377;SDS011;2203;53.686;9.994;2023-08-06T11:02:36;15.00;;;8.93;;
4377;SDS011;2203;53.686;9.994;2023-08-06T11:05:05;17.37;;;8.77;;
4377;SDS011;2203;53.686;9.994;2023-08-06T11:07:31;17.17;;;8.50;;
4377;SDS011;2203;53.686;9.994;2023-08-06T11:12:29;14.87;;;7.93;;
4377;SDS011;2203;53.686;9.994;2023-08-06T11:14:55;16.27;;;8.20;;
4377;SDS011;2203;53.686;9.994;2023-08-06T11:17:21;12.00;;;7.67;;
4377;SDS011;2203;53.686;9.994;2023-08-06T11:19:46;17.80;;;9.17;;
4377;SDS011;2203;53.686;9.994;2023-08-06T11:22:12;13.50;;;8.27;;
4377;SDS011;2203;53.686;9.994;2023-08-06T11:24:37;18.00;;;7.50;;
4377;SDS011;2203;53.686;9.994;2023-08-06T11:27:10;16.47;;;8.00;;
4377;SDS011;2203;53.686;9.994;2023-08-06T11:29:43;13.70;;;7.70;;
4377;SDS011;2203;53.686;9.994;2023-08-06T11:32:09;11.97;;;7.50;;
4377;SDS011;2203;53.686;9.994;2023-08-06T11:34:36;12.30;;;8.00;;
4377;SDS011;2203;53.686;9.994;2023-08-06T11:37:04;21.10;;;9.20;;
4377;SDS011;2203;53.686;9.994;2023-08-06T11:39:34;14.43;;;8.30;;
4377;SDS011;2203;53.686;9.994;2023-08-06T11:42:02;12.97;;;7.60;;
4377;SDS011;2203;53.686;9.994;2023-08-06T11:44:32;20.47;;;8.60;;
4377;SDS011;2203;53.686;9.994;2023-08-06T11:47:00;14.33;;;7.60;;
4377;SDS011;2203;53.686;9.994;2023-08-06T11:54:39;18.77;;;7.50;;
4377;SDS011;2203;53.686;9.994;2023-08-06T11:57:05;11.10;;;6.70;;
4377;SDS011;2203;53.686;9.994;2023-08-06T11:59:30;18.80;;;7.10;;
4377;SDS011;2203;53.686;9.994;2023-08-06T12:01:56;17.13;;;7.63;;
4377;SDS011;2203;53.686;9.994;2023-08-06T12:04:21;10.00;;;7.03;;
4377;SDS011;2203;53.686;9.994;2023-08-06T12:06:47;15.40;;;7.93;;
4377;SDS011;2203;53.686;9.994;2023-08-06T12:09:12;12.03;;;6.80;;
4377;SDS011;2203;53.686;9.994;2023-08-06T12:11:38;10.80;;;6.80;;
4377;SDS011;2203;53.686;9.994;2023-08-06T12:14:03;14.83;;;8.53;;
4377;SDS011;2203;53.686;9.994;2023-08-06T12:16:29;11.93;;;7.87;;
4377;SDS011;2203;53.686;9.994;2023-08-06T12:18:54;14.83;;;8.43;;
4377;SDS011;2203;53.686;9.994;2023-08-06T12:21:19;12.20;;;7.20;;
4377;SDS011;2203;53.686;9.994;2023-08-06T12:23:45;9.37;;;7.10;;
4377;SDS011;2203;53.686;9.994;2023-08-06T12:26:10;16.20;;;6.70;;
4377;SDS011;2203;53.686;9.994;2023-08-06T12:28:36;15.67;;;7.27;;
4377;SDS011;2203;53.686;9.994;2023-08-06T12:31:01;15.97;;;7.60;;
4377;SDS011;2203;53.686;9.994;2023-08-06T12:33:27;21.60;;;9.10;;
4377;SDS011;2203;53.686;9.994;2023-08-06T12:35:52;16.03;;;7.60;;
4377;SDS011;2203;53.686;9.994;2023-08-06T12:38:22;10.70;;;7.40;;
4377;SDS011;2203;53.686;9.994;2023-08-06T12:40:48;14.27;;;8.27;;
4377;SDS011;2203;53.686;9.994;2023-08-06T12:43:13;22.17;;;8.43;;
4377;SDS011;2203;53.686;9.994;2023-08-06T12:45:39;13.50;;;6.90;;
4377;SDS011;2203;53.686;9.994;2023-08-06T12:48:04;15.60;;;6.60;;
4377;SDS011;2203;53.686;9.994;2023-08-06T12:50:30;17.77;;;7.47;;
4377;SDS011;2203;53.686;9.994;2023-08-06T12:52:57;13.17;;;6.70;;
4377;SDS011;2203;53.686;9.994;2023-08-06T12:55:23;12.20;;;6.30;;
4377;SDS011;2203;53.686;9.994;2023-08-06T12:57:48;8.87;;;6.17;;
4377;SDS011;2203;53.686;9.994;2023-08-06T13:00:14;14.70;;;5.87;;
4377;SDS011;2203;53.686;9.994;2023-08-06T13:02:39;11.20;;;5.53;;
4377;SDS011;2203;53.686;9.994;2023-08-06T13:05:05;10.37;;;5.63;;
4377;SDS011;2203;53.686;9.994;2023-08-06T13:07:31;8.30;;;4.73;;
4377;SDS011;2203;53.686;9.994;2023-08-06T13:09:56;12.57;;;5.20;;
4377;SDS011;2203;53.686;9.994;2023-08-06T13:12:22;8.43;;;3.87;;
4377;SDS011;2203;53.686;9.994;2023-08-06T13:14:48;7.23;;;4.50;;
4377;SDS011;2203;53.686;9.994;2023-08-06T13:17:14;6.97;;;4.60;;
4377;SDS011;2203;53.686;9.994;2023-08-06T13:19:39;6.23;;;3.90;;
4377;SDS011;2203;53.686;9.994;2023-08-06T13:22:05;11.73;;;3.23;;
4377;SDS011;2203;53.686;9.994;2023-08-06T13:24:33;10.10;;;3.77;;
4377;SDS011;2203;53.686;9.994;2023-08-06T13:26:59;8.70;;;4.23;;
4377;SDS011;2203;53.686;9.994;2023-08-06T13:29:25;7.07;;;3.50;;
4377;SDS011;2203;53.686;9.994;2023-08-06T13:31:52;7.83;;;4.23;;
4377;SDS011;2203;53.686;9.994;2023-08-06T13:34:17;12.03;;;3.80;;
4377;SDS011;2203;53.686;9.994;2023-08-06T13:36:43;9.23;;;3.40;;
4377;SDS011;2203;53.686;9.994;2023-08-06T13:39:08;10.17;;;3.83;;
4377;SDS011;2203;53.686;9.994;2023-08-06T13:41:34;5.87;;;3.30;;
4377;SDS011;2203;53.686;9.994;2023-08-06T13:43:59;11.30;;;3.80;;
4377;SDS011;2203;53.686;9.994;2023-08-06T13:46:25;7.03;;;3.70;;
4377;SDS011;2203;53.686;9.994;2023-08-06T13:48:50;9.23;;;3.53;;
4377;SDS011;2203;53.686;9.994;2023-08-06T13:51:16;8.20;;;3.37;;
4377;SDS011;2203;53.686;9.994;2023-08-06T13:53:41;12.00;;;3.10;;
4377;SDS011;2203;53.686;9.994;2023-08-06T13:56:08;3.50;;;3.20;;
4377;SDS011;2203;53.686;9.994;2023-08-06T13:58:37;7.47;;;3.60;;
4377;SDS011;2203;53.686;9.994;2023-08-06T14:01:03;5.67;;;3.47;;
4377;SDS011;2203;53.686;9.994;2023-08-06T14:03:28;8.73;;;3.80;;
4377;SDS011;2203;53.686;9.994;2023-08-06T14:05:53;9.13;;;3.17;;
4377;SDS011;2203;53.686;9.994;2023-08-06T14:08:21;7.00;;;3.83;;
4377;SDS011;2203;53.686;9.994;2023-08-06T14:10:53;7.80;;;3.40;;
4377;SDS011;2203;53.686;9.994;2023-08-06T14:13:18;4.83;;;2.70;;
4377;SDS011;2203;53.686;9.994;2023-08-06T14:15:44;13.50;;;3.70;;
4377;SDS011;2203;53.686;9.994;2023-08-06T14:18:12;6.90;;;3.40;;
4377;SDS011;2203;53.686;9.994;2023-08-06T14:20:38;5.93;;;2.93;;
4377;SDS011;2203;53.686;9.994;2023-08-06T14:23:03;4.83;;;2.93;;
4377;SDS011;2203;53.686;9.994;2023-08-06T14:25:28;5.70;;;3.03;;
4377;SDS011;2203;53.686;9.994;2023-08-06T14:27:54;6.50;;;2.93;;
4377;SDS011;2203;53.686;9.994;2023-08-06T14:30:19;5.20;;;2.80;;
4377;SDS011;2203;53.686;9.994;2023-08-06T14:32:45;4.33;;;2.93;;
4377;SDS011;2203;53.686;9.994;2023-08-06T14:35:10;6.67;;;3.10;;
4377;SDS011;2203;53.686;9.994;2023-08-06T14:37:36;5.77;;;2.70;;
4377;SDS011;2203;53.686;9.994;2023-08-06T14:40:01;4.50;;;2.50;;
4377;SDS011;2203;53.686;9.994;2023-08-06T14:42:27;10.70;;;3.30;;
4377;SDS011;2203;53.686;9.994;2023-08-06T14:44:52;3.70;;;3.00;;
4377;SDS011;2203;53.686;9.994;2023-08-06T14:47:18;5.17;;;2.67;;
4377;SDS011;2203;53.686;9.994;2023-08-06T14:49:43;9.50;;;3.43;;
4377;SDS011;2203;53.686;9.994;2023-08-06T14:52:09;5.13;;;2.77;;
4377;SDS011;2203;53.686;9.994;2023-08-06T14:54:35;5.60;;;3.00;;
4377;SDS011;2203;53.686;9.994;2023-08-06T14:57:00;11.53;;;3.10;;
4377;SDS011;2203;53.686;9.994;2023-08-06T14:59:26;5.90;;;2.67;;
4377;SDS011;2203;53.686;9.994;2023-08-06T15:01:51;11.40;;;2.63;;
4377;SDS011;2203;53.686;9.994;2023-08-06T15:04:17;4.07;;;2.80;;
4377;SDS011;2203;53.686;9.994;2023-08-06T15:06:43;5.50;;;2.80;;
4377;SDS011;2203;53.686;9.994;2023-08-06T15:09:09;5.13;;;3.03;;
4377;SDS011;2203;53.686;9.994;2023-08-06T15:11:34;11.60;;;3.53;;
4377;SDS011;2203;53.686;9.994;2023-08-06T15:14:00;3.70;;;3.07;;
4377;SDS011;2203;53.686;9.994;2023-08-06T15:16:26;5.80;;;2.60;;
4377;SDS011;2203;53.686;9.994;2023-08-06T15:18:51;8.27;;;2.90;;
4377;SDS011;2203;53.686;9.994;2023-08-06T15:21:16;7.37;;;3.53;;
4377;SDS011;2203;53.686;9.994;2023-08-06T15:23:42;3.53;;;3.07;;
4377;SDS011;2203;53.686;9.994;2023-08-06T15:26:07;9.53;;;4.00;;
4377;SDS011;2203;53.686;9.994;2023-08-06T15:28:33;8.83;;;5.93;;
4377;SDS011;2203;53.686;9.994;2023-08-06T15:30:58;7.00;;;4.90;;
4377;SDS011;2203;53.686;9.994;2023-08-06T15:33:24;9.60;;;4.97;;
4377;SDS011;2203;53.686;9.994;2023-08-06T15:35:49;7.23;;;3.77;;
4377;SDS011;2203;53.686;9.994;2023-08-06T15:38:15;7.67;;;3.90;;
4377;SDS011;2203;53.686;9.994;2023-08-06T15:40:40;10.10;;;3.30;;